Celik 1 — 9HKY9 — position and weather

sailwx.info

Track history (hours):
 
Tides and Currents Weather Stations Pressure Air Temp Water Temp Dewpoint Dewpoint Depression Visibility Wind Speed Wind Dir Waves Ship Positions

Celik 1

Last reported at 2017-Aug-22 13:19 UTC. Time now 2017-Aug-24 06:49 UTC.
Position N 32°50' E 035°01'.

Length 121 m; draft 6.8 m.

Type: Cargo ship. MMSI: 249114000.

Date/timePositionNaut miles runAvg speedWind from/ knotsBaromVisibWave heightAir tempDewpointWater temp
2017-Aug-22 13:19N 32°50' E 035°01'6 0.1
2017-Aug-20 14:24N 32°53' E 034°54'4 8.6
2017-Aug-20 13:56N 32°54' E 034°50'4 8.8
2017-Aug-20 13:29N 32°54' E 034°45'5 8.8
2017-Aug-20 12:58N 32°55' E 034°40'4 8.9
2017-Aug-20 12:30N 32°56' E 034°35'7 8.9
2017-Aug-20 11:44N 32°57' E 034°27'5 8.9
2017-Aug-20 11:12N 32°58' E 034°21'2 8.8
2017-Aug-20 10:59N 32°58' E 034°19'4 8.8
2017-Aug-20 10:30N 32°59' E 034°14'4 8.8
2017-Aug-20 10:00N 32°60' E 034°09'138 8.9
2017-Aug-19 18:35N 34°19' E 031°53'2 8.9
2017-Aug-19 18:24N 34°20' E 031°52'17 8.8
2017-Aug-19 16:26N 34°30' E 031°35'4 8.7
2017-Aug-19 16:00N 34°32' E 031°31'27 8.6
2017-Aug-19 12:56N 34°48' E 031°05'5 8.5
2017-Aug-19 12:24N 34°51' E 031°01'11 8.4
2017-Aug-19 11:06N 34°57' E 030°50'1 8.3
2017-Aug-19 11:00N 34°58' E 030°49'4 8.3
2017-Aug-19 10:30N 35°00' E 030°45'4 8.3
2017-Aug-19 10:00N 35°03' E 030°41'  
2017-Aug-14 13:09N 43°33' E 028°51'110.0
2017-Aug-14 13:00N 43°35' E 028°51'510.3
2017-Aug-14 12:30N 43°40' E 028°51'510.3
2017-Aug-14 12:00N 43°45' E 028°50'510.2
2017-Aug-14 11:30N 43°50' E 028°50'510.0
2017-Aug-14 11:00N 43°55' E 028°49'5 9.5
2017-Aug-14 10:30N 43°59' E 028°48'510.7
2017-Aug-14 10:00N 44°04' E 028°43'4 9.0
2017-Aug-14 09:31N 44°08' E 028°41'2 3.3
2017-Aug-14 09:00N 44°09' E 028°39'0 0.0
2017-Aug-14 08:30N 44°09' E 028°39'0 0.0
2017-Aug-14 08:00N 44°09' E 028°39'0 0.0
2017-Aug-14 07:30N 44°09' E 028°39'0 0.0
2017-Aug-14 07:00N 44°09' E 028°39'0 0.0
2017-Aug-14 06:30N 44°09' E 028°39'0 0.0
2017-Aug-14 06:00N 44°09' E 028°39'0 0.0
2017-Aug-14 05:30N 44°09' E 028°39'0 0.0
2017-Aug-14 05:00N 44°09' E 028°39'0 0.0
2017-Aug-14 04:30N 44°09' E 028°39'0 0.0
2017-Aug-14 04:00N 44°09' E 028°39'0 0.0
2017-Aug-14 03:30N 44°09' E 028°39'0 0.0
2017-Aug-14 03:00N 44°09' E 028°39'0 0.0
2017-Aug-14 02:30N 44°09' E 028°39'0 0.0
2017-Aug-14 02:00N 44°09' E 028°39'0 0.0
2017-Aug-14 01:30N 44°09' E 028°39'0 0.0
2017-Aug-14 01:00N 44°09' E 028°39'0 0.0
2017-Aug-14 00:30N 44°09' E 028°39'0 0.0
2017-Aug-14 00:00N 44°09' E 028°39'0 0.0
2017-Aug-13 23:30N 44°09' E 028°39'0 0.0
2017-Aug-13 23:00N 44°09' E 028°39'0 0.0
2017-Aug-13 22:30N 44°09' E 028°39'0 0.0
2017-Aug-13 22:00N 44°09' E 028°39'0 0.0
2017-Aug-13 21:30N 44°09' E 028°39'0 0.0
2017-Aug-13 21:00N 44°09' E 028°39'0 0.0
2017-Aug-13 20:30N 44°09' E 028°39'0 0.0
2017-Aug-13 19:54N 44°09' E 028°39'0 0.0
2017-Aug-13 19:30N 44°09' E 028°39'0 0.0
2017-Aug-13 19:00N 44°09' E 028°39'0 0.0
2017-Aug-13 18:30N 44°09' E 028°39'0 0.0
2017-Aug-13 18:00N 44°09' E 028°39'0 0.0
2017-Aug-13 17:27N 44°09' E 028°39'0 0.0
2017-Aug-13 17:00N 44°09' E 028°39'0 0.0
2017-Aug-13 16:30N 44°09' E 028°39'0 0.0
2017-Aug-13 16:00N 44°09' E 028°39'0 0.0
2017-Aug-13 15:30N 44°09' E 028°39'0 0.0
2017-Aug-13 15:00N 44°09' E 028°39'0 0.0
2017-Aug-13 14:30N 44°09' E 028°39'0 0.0
2017-Aug-13 14:00N 44°09' E 028°39'0 0.0
2017-Aug-13 13:30N 44°09' E 028°39'0 0.0
2017-Aug-13 13:00N 44°09' E 028°39'0 0.0
2017-Aug-13 12:30N 44°09' E 028°39'0 0.0
2017-Aug-13 12:00N 44°09' E 028°39'0 0.0
2017-Aug-13 11:30N 44°09' E 028°39'0 0.0
2017-Aug-13 11:00N 44°09' E 028°39'0 0.0
2017-Aug-13 10:30N 44°09' E 028°39'0 0.0
2017-Aug-13 10:00N 44°09' E 028°39'0 0.0
2017-Aug-13 09:30N 44°09' E 028°39'0 0.0
2017-Aug-13 09:00N 44°09' E 028°39'0 0.0
2017-Aug-13 08:30N 44°09' E 028°39'0 0.0
2017-Aug-13 08:00N 44°09' E 028°39'0 0.0
2017-Aug-13 07:30N 44°09' E 028°39'0 0.0
2017-Aug-13 07:00N 44°09' E 028°39'0 0.0
2017-Aug-13 06:30N 44°09' E 028°39'0 0.0
2017-Aug-13 06:00N 44°09' E 028°39'0 0.0
2017-Aug-13 05:27N 44°09' E 028°39'0 0.0
2017-Aug-13 05:00N 44°09' E 028°39'0 0.0
2017-Aug-13 04:30N 44°09' E 028°39'0 0.0
2017-Aug-13 04:00N 44°09' E 028°39'0 0.0
2017-Aug-13 03:30N 44°09' E 028°39'0 0.0
2017-Aug-13 03:00N 44°09' E 028°39'0 0.0
2017-Aug-13 02:30N 44°09' E 028°39'0 0.0
2017-Aug-13 02:00N 44°09' E 028°39'0 0.0
2017-Aug-13 01:30N 44°09' E 028°39'0 0.0
2017-Aug-13 01:00N 44°09' E 028°39'0 0.0
2017-Aug-13 00:30N 44°09' E 028°39'0 0.0
2017-Aug-13 00:00N 44°09' E 028°39'0 0.0
2017-Aug-12 23:30N 44°09' E 028°39'0 0.0
2017-Aug-12 23:00N 44°09' E 028°39'0 0.0
2017-Aug-12 22:30N 44°09' E 028°39'0 0.0
2017-Aug-12 22:00N 44°09' E 028°39'0 0.0
2017-Aug-12 21:30N 44°09' E 028°39'0 0.0
2017-Aug-12 21:00N 44°09' E 028°39'0 0.0
2017-Aug-12 20:30N 44°09' E 028°39'0 0.0
2017-Aug-12 20:00N 44°09' E 028°39'0 0.0
2017-Aug-12 19:24N 44°09' E 028°39'0 0.0
2017-Aug-12 19:00N 44°09' E 028°39'0 0.0
2017-Aug-12 18:30N 44°09' E 028°39'0 0.0
2017-Aug-12 18:00N 44°09' E 028°39'0 0.0
2017-Aug-12 17:30N 44°09' E 028°39'0 0.0
2017-Aug-12 17:00N 44°09' E 028°39'0 0.0
2017-Aug-12 16:30N 44°09' E 028°39'0 0.0
2017-Aug-12 15:57N 44°09' E 028°39'0 0.0
2017-Aug-12 15:30N 44°09' E 028°39'0 0.0
2017-Aug-12 15:00N 44°09' E 028°39'0 0.0
2017-Aug-12 14:30N 44°09' E 028°39'0 0.0
2017-Aug-12 14:00N 44°09' E 028°39'0 0.0
2017-Aug-12 13:30N 44°09' E 028°39'  
Track history (hours):
 
Tides and Currents Weather Stations Pressure Air Temp Water Temp Dewpoint Dewpoint Depression Visibility Wind Speed Wind Dir Waves Ship Positions

Celik 1

Last reported at 2017-Aug-22 13:19 UTC. Time now 2017-Aug-24 06:49 UTC.
Position N 32°50' E 035°01'.

Length 121 m; draft 6.8 m.

Type: Cargo ship. MMSI: 249114000.

Date/timePositionNaut miles runAvg speedWind from/ knotsBaromVisibWave heightAir tempDewpointWater temp
2017-Aug-22 13:19N 32°50' E 035°01'6 0.1
2017-Aug-20 14:24N 32°53' E 034°54'4 8.6
2017-Aug-20 13:56N 32°54' E 034°50'4 8.8
2017-Aug-20 13:29N 32°54' E 034°45'5 8.8
2017-Aug-20 12:58N 32°55' E 034°40'4 8.9
2017-Aug-20 12:30N 32°56' E 034°35'7 8.9
2017-Aug-20 11:44N 32°57' E 034°27'5 8.9
2017-Aug-20 11:12N 32°58' E 034°21'2 8.8
2017-Aug-20 10:59N 32°58' E 034°19'4 8.8
2017-Aug-20 10:30N 32°59' E 034°14'4 8.8
2017-Aug-20 10:00N 32°60' E 034°09'138 8.9
2017-Aug-19 18:35N 34°19' E 031°53'2 8.9
2017-Aug-19 18:24N 34°20' E 031°52'17 8.8
2017-Aug-19 16:26N 34°30' E 031°35'4 8.7
2017-Aug-19 16:00N 34°32' E 031°31'27 8.6
2017-Aug-19 12:56N 34°48' E 031°05'5 8.5
2017-Aug-19 12:24N 34°51' E 031°01'11 8.4
2017-Aug-19 11:06N 34°57' E 030°50'1 8.3
2017-Aug-19 11:00N 34°58' E 030°49'4 8.3
2017-Aug-19 10:30N 35°00' E 030°45'4 8.3
2017-Aug-19 10:00N 35°03' E 030°41'  
2017-Aug-14 13:09N 43°33' E 028°51'110.0
2017-Aug-14 13:00N 43°35' E 028°51'510.3
2017-Aug-14 12:30N 43°40' E 028°51'510.3
2017-Aug-14 12:00N 43°45' E 028°50'510.2
2017-Aug-14 11:30N 43°50' E 028°50'510.0
2017-Aug-14 11:00N 43°55' E 028°49'5 9.5
2017-Aug-14 10:30N 43°59' E 028°48'510.7
2017-Aug-14 10:00N 44°04' E 028°43'4 9.0
2017-Aug-14 09:31N 44°08' E 028°41'2 3.3
2017-Aug-14 09:00N 44°09' E 028°39'0 0.0
2017-Aug-14 08:30N 44°09' E 028°39'0 0.0
2017-Aug-14 08:00N 44°09' E 028°39'0 0.0
2017-Aug-14 07:30N 44°09' E 028°39'0 0.0
2017-Aug-14 07:00N 44°09' E 028°39'0 0.0
2017-Aug-14 06:30N 44°09' E 028°39'0 0.0
2017-Aug-14 06:00N 44°09' E 028°39'0 0.0
2017-Aug-14 05:30N 44°09' E 028°39'0 0.0
2017-Aug-14 05:00N 44°09' E 028°39'0 0.0
2017-Aug-14 04:30N 44°09' E 028°39'0 0.0
2017-Aug-14 04:00N 44°09' E 028°39'0 0.0
2017-Aug-14 03:30N 44°09' E 028°39'0 0.0
2017-Aug-14 03:00N 44°09' E 028°39'0 0.0
2017-Aug-14 02:30N 44°09' E 028°39'0 0.0
2017-Aug-14 02:00N 44°09' E 028°39'0 0.0
2017-Aug-14 01:30N 44°09' E 028°39'0 0.0
2017-Aug-14 01:00N 44°09' E 028°39'0 0.0
2017-Aug-14 00:30N 44°09' E 028°39'0 0.0
2017-Aug-14 00:00N 44°09' E 028°39'0 0.0
2017-Aug-13 23:30N 44°09' E 028°39'0 0.0
2017-Aug-13 23:00N 44°09' E 028°39'0 0.0
2017-Aug-13 22:30N 44°09' E 028°39'0 0.0
2017-Aug-13 22:00N 44°09' E 028°39'0 0.0
2017-Aug-13 21:30N 44°09' E 028°39'0 0.0
2017-Aug-13 21:00N 44°09' E 028°39'0 0.0
2017-Aug-13 20:30N 44°09' E 028°39'0 0.0
2017-Aug-13 19:54N 44°09' E 028°39'0 0.0
2017-Aug-13 19:30N 44°09' E 028°39'0 0.0
2017-Aug-13 19:00N 44°09' E 028°39'0 0.0
2017-Aug-13 18:30N 44°09' E 028°39'0 0.0
2017-Aug-13 18:00N 44°09' E 028°39'0 0.0
2017-Aug-13 17:27N 44°09' E 028°39'0 0.0
2017-Aug-13 17:00N 44°09' E 028°39'0 0.0
2017-Aug-13 16:30N 44°09' E 028°39'0 0.0
2017-Aug-13 16:00N 44°09' E 028°39'0 0.0
2017-Aug-13 15:30N 44°09' E 028°39'0 0.0
2017-Aug-13 15:00N 44°09' E 028°39'0 0.0
2017-Aug-13 14:30N 44°09' E 028°39'0 0.0
2017-Aug-13 14:00N 44°09' E 028°39'0 0.0
2017-Aug-13 13:30N 44°09' E 028°39'0 0.0
2017-Aug-13 13:00N 44°09' E 028°39'0 0.0
2017-Aug-13 12:30N 44°09' E 028°39'0 0.0
2017-Aug-13 12:00N 44°09' E 028°39'0 0.0
2017-Aug-13 11:30N 44°09' E 028°39'0 0.0
2017-Aug-13 11:00N 44°09' E 028°39'0 0.0
2017-Aug-13 10:30N 44°09' E 028°39'0 0.0
2017-Aug-13 10:00N 44°09' E 028°39'0 0.0
2017-Aug-13 09:30N 44°09' E 028°39'0 0.0
2017-Aug-13 09:00N 44°09' E 028°39'0 0.0
2017-Aug-13 08:30N 44°09' E 028°39'0 0.0
2017-Aug-13 08:00N 44°09' E 028°39'0 0.0
2017-Aug-13 07:30N 44°09' E 028°39'0 0.0
2017-Aug-13 07:00N 44°09' E 028°39'0 0.0
2017-Aug-13 06:30N 44°09' E 028°39'0 0.0
2017-Aug-13 06:00N 44°09' E 028°39'0 0.0
2017-Aug-13 05:27N 44°09' E 028°39'0 0.0
2017-Aug-13 05:00N 44°09' E 028°39'0 0.0
2017-Aug-13 04:30N 44°09' E 028°39'0 0.0
2017-Aug-13 04:00N 44°09' E 028°39'0 0.0
2017-Aug-13 03:30N 44°09' E 028°39'0 0.0
2017-Aug-13 03:00N 44°09' E 028°39'0 0.0
2017-Aug-13 02:30N 44°09' E 028°39'0 0.0
2017-Aug-13 02:00N 44°09' E 028°39'0 0.0
2017-Aug-13 01:30N 44°09' E 028°39'0 0.0
2017-Aug-13 01:00N 44°09' E 028°39'0 0.0
2017-Aug-13 00:30N 44°09' E 028°39'0 0.0
2017-Aug-13 00:00N 44°09' E 028°39'0 0.0
2017-Aug-12 23:30N 44°09' E 028°39'0 0.0
2017-Aug-12 23:00N 44°09' E 028°39'0 0.0
2017-Aug-12 22:30N 44°09' E 028°39'0 0.0
2017-Aug-12 22:00N 44°09' E 028°39'0 0.0
2017-Aug-12 21:30N 44°09' E 028°39'0 0.0
2017-Aug-12 21:00N 44°09' E 028°39'0 0.0
2017-Aug-12 20:30N 44°09' E 028°39'0 0.0
2017-Aug-12 20:00N 44°09' E 028°39'0 0.0
2017-Aug-12 19:24N 44°09' E 028°39'0 0.0
2017-Aug-12 19:00N 44°09' E 028°39'0 0.0
2017-Aug-12 18:30N 44°09' E 028°39'0 0.0
2017-Aug-12 18:00N 44°09' E 028°39'0 0.0
2017-Aug-12 17:30N 44°09' E 028°39'0 0.0
2017-Aug-12 17:00N 44°09' E 028°39'0 0.0
2017-Aug-12 16:30N 44°09' E 028°39'0 0.0
2017-Aug-12 15:57N 44°09' E 028°39'0 0.0
2017-Aug-12 15:30N 44°09' E 028°39'0 0.0
2017-Aug-12 15:00N 44°09' E 028°39'0 0.0
2017-Aug-12 14:30N 44°09' E 028°39'0 0.0
2017-Aug-12 14:00N 44°09' E 028°39'0 0.0
2017-Aug-12 13:30N 44°09' E 028°39'  

Dump ship's entire track history